Time;durP1;ratioP1;P1;durP2;ratioP2;P2;SDS_P1;SDS_P2;PMS_P1;PMS_P2;Temp;Humidity;BMP_temperature;BMP_pressure;BME280_temperature;BME280_humidity;BME280_pressure;Samples;Min_cycle;Max_cycle;Signal;HPM_P1;HPM_P2
2022/06/08 00:02:17;;;;;;;19.88;10.70;;;;;;;15.79;71.80;101029.25;10417300;28;20041;-75
2022/06/08 00:07:19;;;;;;;16.33;9.93;;;;;;;15.75;72.33;101030.06;10403224;28;20049;-75
2022/06/08 00:12:21;;;;;;;16.42;10.57;;;;;;;15.39;72.97;101015.97;10429203;28;20047;-74
2022/06/08 00:17:22;;;;;;;21.58;11.98;;;;;;;15.47;73.21;101009.09;10416739;28;20045;-74
2022/06/08 00:22:24;;;;;;;20.65;12.27;;;;;;;15.42;73.83;101004.72;10420539;28;20037;-74
2022/06/08 00:27:26;;;;;;;18.85;13.02;;;;;;;15.30;75.94;101005.53;10420553;28;20045;-74
2022/06/08 00:32:27;;;;;;;17.48;13.48;;;;;;;15.43;76.39;100991.78;10417298;28;20096;-76
2022/06/08 00:37:29;;;;;;;18.80;13.90;;;;;;;15.42;76.22;100978.78;10417117;28;20044;-76
2022/06/08 00:42:31;;;;;;;19.50;13.70;;;;;;;15.13;77.55;100982.91;10416333;28;20041;-76
2022/06/08 00:47:43;;;;;;;22.38;13.88;;;;;;;14.93;78.87;100992.25;10417826;28;20107;-76
2022/06/08 00:52:47;;;;;;;25.65;18.52;;;;;;;14.65;82.73;100994.50;10413364;28;20099;-76
2022/06/08 00:57:56;;;;;;;24.88;16.88;;;;;;;14.92;81.00;100988.75;10416180;28;20052;-75
2022/06/08 01:02:59;;;;;;;24.30;17.57;;;;;;;14.77;79.80;100978.22;10415722;28;20413;-76
2022/06/08 01:08:28;;;;;;;24.75;16.75;;;;;;;14.61;80.59;100978.03;10424546;28;20046;-76
2022/06/08 01:13:34;;;;;;;21.20;15.38;;;;;;;14.41;79.61;100973.53;10415308;28;20073;-76
2022/06/08 01:18:40;;;;;;;32.17;18.58;;;;;;;14.47;80.43;100959.78;10429720;28;20045;-77
2022/06/08 01:23:43;;;;;;;35.92;21.05;;;;;;;14.44;81.46;100952.81;10439798;28;20100;-77
2022/06/08 01:28:58;;;;;;;31.75;20.27;;;;;;;14.61;81.53;100957.31;10456260;28;20045;-76
2022/06/08 01:34:14;;;;;;;30.60;19.88;;;;;;;14.74;81.93;100950.56;10450044;28;20124;-76
2022/06/08 01:39:51;;;;;;;21.52;15.30;;;;;;;14.55;81.16;100945.16;10439139;28;20049;-78
2022/06/08 01:50:31;;;;;;;32.13;20.20;;;;;;;14.47;82.96;100946.81;10410571;28;20041;-75
2022/06/08 01:55:46;;;;;;;34.38;20.80;;;;;;;14.64;84.44;100941.78;10402420;28;20046;-75
2022/06/08 02:00:59;;;;;;;35.17;23.23;;;;;;;14.74;84.98;100932.41;10405602;28;20041;-74
2022/06/08 02:06:17;;;;;;;38.83;24.08;;;;;;;14.80;85.69;100927.25;10415356;28;20064;-75
2022/06/08 02:11:28;;;;;;;38.60;22.50;;;;;;;14.78;85.49;100922.91;10402832;28;20076;-76
2022/06/08 02:16:46;;;;;;;36.13;21.27;;;;;;;14.87;85.27;100913.50;10416687;28;20121;-76
2022/06/08 02:21:58;;;;;;;38.03;20.50;;;;;;;14.78;84.92;100903.03;10427458;28;20050;-76
2022/06/08 02:27:14;;;;;;;37.75;19.60;;;;;;;14.94;84.40;100900.56;10426802;28;20057;-76
2022/06/08 02:38:02;;;;;;;37.13;20.70;;;;;;;14.85;84.74;100899.66;10412062;28;20064;-76
2022/06/08 02:43:10;;;;;;;39.28;21.00;;;;;;;14.72;85.36;100893.50;10412353;28;20045;-76
2022/06/08 02:48:14;;;;;;;31.83;18.00;;;;;;;14.86;84.85;100885.81;10411595;28;20044;-76
2022/06/08 02:53:20;;;;;;;32.17;17.65;;;;;;;14.94;84.36;100885.00;10403917;28;20104;-76
2022/06/08 02:58:39;;;;;;;31.45;17.08;;;;;;;14.86;83.88;100874.56;10412802;28;20083;-76
2022/06/08 03:03:50;;;;;;;33.40;19.10;;;;;;;14.88;83.92;100865.09;10406134;28;20045;-77
2022/06/08 03:09:01;;;;;;;35.13;18.38;;;;;;;15.02;83.96;100859.97;10387565;28;20045;-76
2022/06/08 03:14:16;;;;;;;30.92;18.30;;;;;;;14.96;84.51;100860.84;10411763;28;20041;-75
2022/06/08 03:19:20;;;;;;;30.17;17.15;;;;;;;14.90;84.55;100851.28;10406272;28;20132;-76
2022/06/08 03:24:25;;;;;;;35.83;19.00;;;;;;;14.92;84.70;100853.88;10404115;28;20073;-76
2022/06/08 03:29:28;;;;;;;34.53;18.45;;;;;;;14.86;84.78;100848.63;10431132;28;20049;-76
2022/06/08 03:34:32;;;;;;;37.60;19.85;;;;;;;14.86;84.75;100844.31;10418776;28;20026;-75
2022/06/08 03:39:34;;;;;;;35.88;20.38;;;;;;;14.69;85.17;100862.34;10419076;28;20576;-76
2022/06/08 03:44:36;;;;;;;39.28;21.00;;;;;;;14.76;85.25;100858.09;10416316;28;20041;-76
2022/06/08 03:49:39;;;;;;;34.05;20.25;;;;;;;14.71;85.65;100851.97;10418868;28;20057;-76
2022/06/08 03:54:48;;;;;;;38.28;21.58;;;;;;;14.68;85.33;100841.59;10418813;28;20053;-76
2022/06/08 03:59:51;;;;;;;41.90;22.58;;;;;;;14.62;85.78;100849.28;10418646;28;20053;-76
2022/06/08 04:04:54;;;;;;;40.38;22.70;;;;;;;14.66;85.89;100856.25;10434195;28;20038;-76
2022/06/08 04:09:57;;;;;;;38.72;20.65;;;;;;;14.74;86.55;100850.25;10418801;28;20459;-76
2022/06/08 04:14:59;;;;;;;36.15;21.13;;;;;;;14.82;86.39;100855.53;10418142;28;20099;-76
2022/06/08 04:20:01;;;;;;;42.40;23.00;;;;;;;15.02;85.75;100849.59;10418747;28;20038;-76
2022/06/08 04:25:03;;;;;;;45.10;24.50;;;;;;;15.18;86.06;100851.44;10419231;28;20047;-76
2022/06/08 04:30:08;;;;;;;42.25;23.65;;;;;;;15.30;86.04;100855.00;10418035;28;20064;-75
2022/06/08 04:35:12;;;;;;;44.72;24.52;;;;;;;15.04;86.70;100853.94;10421099;28;20047;-76
2022/06/08 04:40:15;;;;;;;41.80;22.65;;;;;;;15.00;87.38;100859.97;10400644;28;20081;-77
2022/06/08 04:45:21;;;;;;;39.17;21.98;;;;;;;14.84;87.48;100861.59;10414843;28;20103;-76
2022/06/08 04:50:26;;;;;;;42.22;21.80;;;;;;;14.87;87.67;100872.00;10428651;28;20049;-77
2022/06/08 04:55:29;;;;;;;39.58;21.05;;;;;;;14.98;88.21;100863.44;10412149;28;20046;-76
2022/06/08 05:00:31;;;;;;;40.45;18.90;;;;;;;14.93;88.35;100865.13;10413070;28;20042;-79
2022/06/08 05:05:39;;;;;;;27.55;14.68;;;;;;;15.01;88.65;100868.63;10401992;28;20068;-77
2022/06/08 05:10:53;;;;;;;26.90;13.43;;;;;;;15.12;88.32;100866.97;10411387;28;20041;-76
2022/06/08 05:15:58;;;;;;;31.60;15.38;;;;;;;15.31;87.81;100861.88;10414588;28;20052;-76
2022/06/08 05:21:01;;;;;;;34.10;16.60;;;;;;;15.32;87.21;100854.13;10410886;28;20044;-76
2022/06/08 05:26:07;;;;;;;30.40;15.73;;;;;;;15.54;86.60;100847.31;10413760;28;20049;-76
2022/06/08 05:31:11;;;;;;;31.25;16.17;;;;;;;15.60;86.64;100840.41;10391441;28;20136;-77
2022/06/08 05:36:16;;;;;;;28.70;16.00;;;;;;;15.86;86.40;100840.56;10409706;28;20126;-76
2022/06/08 05:41:21;;;;;;;30.92;16.00;;;;;;;16.14;84.81;100815.47;10410393;28;20053;-76
2022/06/08 05:46:24;;;;;;;31.70;16.65;;;;;;;16.31;84.97;100812.03;10412032;28;20460;-77
2022/06/08 05:51:32;;;;;;;25.65;14.38;;;;;;;16.44;84.84;100803.38;10409501;28;20045;-77
2022/06/08 05:56:33;;;;;;;23.73;12.90;;;;;;;16.44;83.84;100800.75;10412926;28;20041;-76
2022/06/08 06:01:38;;;;;;;22.63;12.82;;;;;;;16.54;83.68;100798.16;10413108;28;20140;-76
2022/06/08 06:06:46;;;;;;;21.05;11.35;;;;;;;16.69;82.64;100792.97;10406388;28;20496;-76
2022/06/08 06:11:52;;;;;;;21.85;11.63;;;;;;;17.02;81.74;100800.72;10409337;28;20049;-76
2022/06/08 06:16:57;;;;;;;22.25;11.43;;;;;;;17.06;81.50;100792.03;10409284;28;20103;-76
2022/06/08 06:21:58;;;;;;;22.77;11.65;;;;;;;17.35;80.43;100784.13;10408728;28;20045;-76
2022/06/08 06:27:09;;;;;;;20.70;11.15;;;;;;;17.27;80.46;100775.50;10420216;28;20045;-77
2022/06/08 06:32:37;;;;;;;20.98;10.90;;;;;;;17.28;79.42;100770.25;10423452;28;20065;-76
2022/06/08 06:37:40;;;;;;;21.00;11.45;;;;;;;17.44;79.40;100767.59;10394941;28;20058;-76
2022/06/08 06:42:42;;;;;;;22.17;10.65;;;;;;;17.73;78.77;100759.63;10408059;28;20589;-74
2022/06/08 06:48:04;;;;;;;20.52;11.32;;;;;;;17.38;78.59;100752.88;10411652;28;20512;-76
2022/06/08 06:53:11;;;;;;;20.58;10.43;;;;;;;17.60;78.70;100750.16;10407953;28;20049;-76
2022/06/08 06:58:18;;;;;;;;;;;;;;;18.16;77.84;100752.41;10408055;28;20140;-76
2022/06/08 07:03:21;;;;;;;21.73;10.88;;;;;;;17.98;76.80;100748.22;10407464;28;20007;-76
2022/06/08 07:08:25;;;;;;;17.38;10.85;;;;;;;17.84;76.32;100741.31;10414126;28;20049;-77
2022/06/08 07:13:32;;;;;;;15.45;9.63;;;;;;;17.91;76.80;100739.53;10408251;28;20033;-76
2022/06/08 07:18:34;;;;;;;15.57;9.20;;;;;;;18.06;76.18;100730.78;10412545;28;20065;-76
2022/06/08 07:23:37;;;;;;;15.82;8.80;;;;;;;17.92;74.94;100736.03;10407568;28;20065;-75
2022/06/08 07:28:42;;;;;;;14.40;7.40;;;;;;;18.28;74.55;100730.59;10409631;28;20404;-79
2022/06/08 07:33:45;;;;;;;15.07;8.52;;;;;;;18.75;73.98;100720.56;10406886;28;20137;-75
2022/06/08 07:38:46;;;;;;;11.43;7.07;;;;;;;18.72;72.90;100716.25;10411036;28;20121;-77
2022/06/08 07:43:49;;;;;;;9.50;5.57;;;;;;;18.66;72.52;100713.72;10406703;28;20045;-76
2022/06/08 07:54:11;;;;;;;7.20;4.45;;;;;;;19.26;70.09;100697.34;10407977;28;20500;-76
2022/06/08 07:59:16;;;;;;;8.20;4.75;;;;;;;18.80;70.36;100701.38;10402591;28;20443;-75
2022/06/08 08:04:18;;;;;;;8.82;4.65;;;;;;;19.03;70.54;100697.66;10397699;28;20046;-76
2022/06/08 08:09:22;;;;;;;7.85;4.10;;;;;;;19.04;70.17;100691.56;10420274;28;20095;-75
2022/06/08 08:14:24;;;;;;;8.68;4.15;;;;;;;19.07;68.37;100674.97;10413729;28;20511;-76
2022/06/08 08:19:27;;;;;;;10.18;4.00;;;;;;;19.46;64.63;100675.31;10413947;28;20053;-77
2022/06/08 08:24:31;;;;;;;7.50;2.75;;;;;;;20.39;63.96;100682.53;10417891;28;20054;-77
2022/06/08 08:29:33;;;;;;;9.30;2.70;;;;;;;20.24;64.88;100678.44;10404627;28;20053;-76
2022/06/08 08:34:35;;;;;;;5.15;2.75;;;;;;;20.20;63.08;100668.94;10407275;28;20057;-76
2022/06/08 08:39:37;;;;;;;5.30;2.60;;;;;;;20.32;63.25;100662.63;10394674;28;20045;-78
2022/06/08 08:44:50;;;;;;;7.15;2.97;;;;;;;20.48;62.32;100665.78;10409078;28;20045;-77
2022/06/08 08:50:24;;;;;;;6.53;2.80;;;;;;;21.58;60.61;100650.44;10414376;28;20108;-76
2022/06/08 08:55:50;;;;;;;9.23;2.90;;;;;;;21.65;58.84;100656.38;10403287;28;20500;-77
2022/06/08 09:00:57;;;;;;;6.88;3.22;;;;;;;21.22;60.81;100643.34;10404070;28;20046;-76
2022/06/08 09:06:13;;;;;;;8.38;2.72;;;;;;;21.48;60.34;100646.25;10402608;28;20151;-78
2022/06/08 09:11:23;;;;;;;4.90;2.75;;;;;;;21.73;59.81;100638.69;10411936;28;20046;-76
2022/06/08 09:16:39;;;;;;;4.90;2.38;;;;;;;22.28;58.20;100635.53;10414348;28;20057;-76
2022/06/08 09:21:41;;;;;;;5.57;2.80;;;;;;;22.46;57.20;100632.41;10411011;28;20449;-77
2022/06/08 09:26:44;;;;;;;7.10;2.88;;;;;;;21.54;59.96;100626.00;10420947;28;20393;-76
2022/06/08 09:31:48;;;;;;;7.10;3.13;;;;;;;21.58;60.47;100618.09;10410602;28;20091;-77
2022/06/08 09:37:20;;;;;;;3.67;2.22;;;;;;;21.66;60.20;100621.38;10408225;28;20114;-78
2022/06/08 09:43:07;;;;;;;5.38;2.20;;;;;;;21.49;60.97;100620.00;10403947;28;20080;-77
2022/06/08 09:53:57;;;;;;;5.47;2.08;;;;;;;20.87;62.64;100607.44;10406391;28;20045;-77
2022/06/08 09:59:02;;;;;;;4.03;2.17;;;;;;;20.66;63.79;100603.53;10409113;28;20041;-77
2022/06/08 10:05:01;;;;;;;5.97;2.50;;;;;;;20.76;62.87;100607.69;10408217;28;20120;-76
2022/06/08 10:10:15;;;;;;;7.15;2.60;;;;;;;21.38;61.68;100595.81;10300984;28;20522;-77
2022/06/08 10:15:25;;;;;;;6.28;2.25;;;;;;;21.14;61.28;100592.88;10392970;28;20140;-77
2022/06/08 10:20:36;;;;;;;8.18;2.55;;;;;;;21.51;60.10;100589.38;10409238;28;20559;-78
2022/06/08 10:25:46;;;;;;;11.20;2.30;;;;;;;21.58;59.94;100597.13;10415532;28;20040;-77
2022/06/08 10:30:54;;;;;;;10.25;2.10;;;;;;;20.81;61.22;100584.91;10401386;28;20565;-77
2022/06/08 10:35:59;;;;;;;4.47;1.80;;;;;;;20.61;62.30;100583.53;10404863;28;20496;-80
2022/06/08 10:46:46;;;;;;;6.00;2.72;;;;;;;20.54;61.35;100581.94;10409216;28;20049;-78
2022/06/08 10:52:20;;;;;;;12.15;2.65;;;;;;;20.50;60.39;100577.66;10409148;28;20052;-78
2022/06/08 10:57:47;;;;;;;18.00;2.83;;;;;;;20.58;62.66;100573.13;10407608;28;20049;-78
2022/06/08 11:02:52;;;;;;;6.78;2.80;;;;;;;20.24;62.35;100579.03;10392644;28;20049;-78
2022/06/08 11:08:06;;;;;;;5.35;2.50;;;;;;;20.20;62.03;100587.84;10396184;28;20408;-77
2022/06/08 11:13:22;;;;;;;6.47;2.08;;;;;;;20.03;61.30;100585.53;10410708;28;20389;-76
2022/06/08 11:18:31;;;;;;;9.68;2.38;;;;;;;19.75;62.79;100590.38;10402121;28;20053;-78
2022/06/08 11:23:40;;;;;;;9.82;2.45;;;;;;;19.64;62.99;100599.25;10426259;28;20045;-77
2022/06/08 11:28:44;;;;;;;8.23;2.08;;;;;;;19.58;64.14;100599.34;10409367;28;20124;-76
2022/06/08 11:34:12;;;;;;;8.90;2.22;;;;;;;19.51;65.94;100595.13;10421221;28;20508;-77
2022/06/08 11:39:22;;;;;;;10.43;3.53;;;;;;;19.51;67.35;100584.66;10407077;28;20072;-77
2022/06/08 11:44:31;;;;;;;10.07;3.40;;;;;;;19.00;70.67;100596.75;10409187;28;20041;-76
2022/06/08 11:49:44;;;;;;;7.87;3.37;;;;;;;19.11;74.42;100596.59;10411869;28;20049;-75
2022/06/08 11:55:07;;;;;;;8.90;3.40;;;;;;;19.25;74.93;100591.16;10405846;28;20041;-76
2022/06/08 12:00:36;;;;;;;9.17;3.40;;;;;;;19.20;75.43;100598.19;10420170;28;20559;-76
2022/06/08 12:05:39;;;;;;;9.93;3.78;;;;;;;19.10;76.30;100607.06;10411874;28;20049;-76
2022/06/08 12:10:42;;;;;;;7.18;2.50;;;;;;;17.39;75.93;100628.75;10413481;28;20049;-79
2022/06/08 12:15:51;;;;;;;8.05;2.22;;;;;;;16.95;77.86;100646.34;10412857;28;20056;-79
2022/06/08 12:21:01;;;;;;;5.35;2.33;;;;;;;16.72;79.86;100642.06;10420701;28;20489;-79
2022/06/08 12:26:04;;;;;;;8.38;3.28;;;;;;;16.91;80.22;100631.59;10410463;28;20420;-79
2022/06/08 12:31:23;;;;;;;9.48;2.78;;;;;;;17.36;80.62;100623.53;10408434;28;20044;-79
2022/06/08 12:36:31;;;;;;;6.57;3.10;;;;;;;17.35;81.42;100627.91;10411141;28;20125;-79
2022/06/08 12:41:43;;;;;;;8.80;4.35;;;;;;;16.95;81.50;100618.59;10412915;28;20041;-80
2022/06/08 12:47:16;;;;;;;7.82;3.60;;;;;;;17.02;82.53;100615.94;10407032;28;20144;-79
2022/06/08 12:52:27;;;;;;;7.97;3.55;;;;;;;17.00;83.04;100618.56;10395605;28;20046;-80
2022/06/08 12:57:31;;;;;;;8.95;3.70;;;;;;;17.51;84.07;100612.16;10425282;28;20148;-80
2022/06/08 13:02:37;;;;;;;10.63;3.42;;;;;;;17.27;83.07;100609.75;10407319;28;20140;-80
2022/06/08 13:07:40;;;;;;;8.40;3.92;;;;;;;17.27;83.30;100614.06;10403092;28;20124;-81
2022/06/08 13:12:47;;;;;;;7.97;3.00;;;;;;;17.31;83.04;100615.78;10393127;28;20405;-81
2022/06/08 13:17:50;;;;;;;4.05;2.25;;;;;;;16.71;81.57;100618.66;10410411;28;20416;-81
2022/06/08 13:22:52;;;;;;;7.90;2.22;;;;;;;16.76;82.23;100617.78;10410028;28;20111;-81
2022/06/08 13:28:16;;;;;;;5.50;1.60;;;;;;;16.22;81.59;100614.47;10418299;28;20041;-81
2022/06/08 13:38:45;;;;;;;7.53;2.40;;;;;;;16.17;82.84;100610.16;10409936;28;20057;-82
2022/06/08 13:43:47;;;;;;;5.18;2.08;;;;;;;16.29;83.34;100606.69;10411196;28;20049;-81
2022/06/08 13:48:53;;;;;;;6.82;2.22;;;;;;;16.39;83.64;100601.44;10426652;28;20501;-80
2022/06/08 13:53:56;;;;;;;5.13;2.22;;;;;;;16.67;83.97;100594.41;10411182;28;20495;-81
2022/06/08 13:58:58;;;;;;;6.90;2.70;;;;;;;16.42;84.01;100591.88;10415930;28;20045;-80
2022/06/08 14:04:01;;;;;;;8.85;2.70;;;;;;;16.44;83.72;100590.16;10414717;28;20686;-80
2022/06/08 14:14:53;;;;;;;7.80;2.77;;;;;;;16.29;84.88;100587.59;10400696;28;20116;-82
2022/06/08 14:19:57;;;;;;;4.88;2.58;;;;;;;16.30;84.20;100576.34;10403222;28;20136;-82
2022/06/08 14:25:08;;;;;;;6.30;2.95;;;;;;;16.27;84.37;100566.81;10412341;28;20072;-82
2022/06/08 14:30:14;;;;;;;6.53;2.90;;;;;;;16.16;84.22;100569.44;10410472;28;20889;-80
2022/06/08 14:35:31;;;;;;;3.70;2.28;;;;;;;16.22;84.31;100567.69;10411059;28;20049;-81
2022/06/08 14:40:54;;;;;;;4.20;2.33;;;;;;;16.34;84.90;100563.31;10407661;28;20143;-79
2022/06/08 14:45:56;;;;;;;4.53;2.22;;;;;;;16.30;85.64;100563.34;10409197;28;20049;-80
2022/06/08 14:50:58;;;;;;;5.38;2.10;;;;;;;16.21;84.76;100556.44;10424061;28;20057;-80
2022/06/08 15:01:24;;;;;;;7.22;2.10;;;;;;;16.22;84.43;100546.91;10413420;28;20049;-80
2022/06/08 15:06:26;;;;;;;5.20;2.17;;;;;;;16.70;85.53;100534.56;10399017;28;20036;-79
2022/06/08 15:16:54;;;;;;;3.22;2.03;;;;;;;16.43;85.20;100536.41;10409594;28;20500;-79
2022/06/08 15:21:57;;;;;;;6.25;2.40;;;;;;;16.30;85.11;100534.75;10409698;28;20048;-80
2022/06/08 15:27:05;;;;;;;4.05;2.15;;;;;;;16.49;85.46;100531.19;10406244;28;20075;-79
2022/06/08 15:32:12;;;;;;;4.93;2.00;;;;;;;16.55;84.83;100525.09;10409964;28;20697;-79
2022/06/08 15:37:19;;;;;;;7.05;2.60;;;;;;;16.39;85.34;100528.63;10407516;28;20061;-79
2022/06/08 15:42:23;;;;;;;6.63;2.22;;;;;;;16.53;85.83;100520.78;10419085;28;20049;-79
2022/06/08 15:47:32;;;;;;;4.22;2.30;;;;;;;16.29;85.97;100517.41;10405490;28;20049;-79
2022/06/08 15:52:40;;;;;;;5.82;2.30;;;;;;;16.24;86.89;100525.22;10406179;28;20088;-80
2022/06/08 15:57:47;;;;;;;5.38;2.45;;;;;;;16.09;87.10;100520.97;10404147;28;20494;-80
2022/06/08 16:02:49;;;;;;;4.88;2.50;;;;;;;15.94;87.58;100514.06;10405005;28;20100;-81
2022/06/08 16:07:57;;;;;;;8.00;2.50;;;;;;;16.00;87.45;100511.47;10404255;28;20053;-80
2022/06/08 16:13:00;;;;;;;4.07;2.58;;;;;;;16.03;87.58;100510.59;10401838;28;20042;-81
2022/06/08 16:18:03;;;;;;;8.15;2.65;;;;;;;16.11;88.07;100505.34;10394993;28;20042;-81
2022/06/08 16:23:07;;;;;;;4.78;2.60;;;;;;;16.07;88.72;100507.09;10406347;28;20099;-81
2022/06/08 16:28:11;;;;;;;6.75;3.15;;;;;;;16.12;88.64;100509.69;10388710;28;20508;-81
2022/06/08 16:33:13;;;;;;;4.85;3.17;;;;;;;15.98;89.65;100523.59;10409486;28;20452;-82
2022/06/08 16:38:16;;;;;;;6.93;3.60;;;;;;;16.06;89.30;100520.94;10412417;28;20053;-81
2022/06/08 16:43:18;;;;;;;4.93;2.85;;;;;;;16.01;89.20;100530.50;10389103;28;20073;-82
2022/06/08 16:48:20;;;;;;;1.67;1.20;;;;;;;15.54;89.17;100540.91;10409621;28;20150;-84
2022/06/08 16:53:23;;;;;;;2.33;1.08;;;;;;;15.44;88.97;100551.31;10417869;28;20038;-83
2022/06/08 17:03:45;;;;;;;1.85;0.68;;;;;;;15.35;89.03;100541.78;10411418;28;20046;-80
2022/06/08 17:08:47;;;;;;;2.65;1.00;;;;;;;15.43;89.12;100550.47;10410931;28;20049;-81
2022/06/08 17:13:49;;;;;;;2.45;1.15;;;;;;;15.71;88.60;100556.47;10409155;28;20378;-80
2022/06/08 17:18:51;;;;;;;4.28;2.08;;;;;;;15.71;88.36;100556.47;10407930;28;20053;-80
2022/06/08 17:23:56;;;;;;;5.93;3.58;;;;;;;15.83;88.82;100565.19;10410170;28;20089;-80
2022/06/08 17:28:58;;;;;;;6.72;4.75;;;;;;;15.98;88.76;100559.97;10408977;28;20071;-80
2022/06/08 17:34:00;;;;;;;8.82;5.00;;;;;;;15.94;88.35;100568.59;10406518;28;20091;-79
2022/06/08 17:39:03;;;;;;;8.90;5.38;;;;;;;16.16;88.23;100560.75;10408694;28;20080;-79
2022/06/08 17:44:05;;;;;;;9.07;5.88;;;;;;;16.06;88.05;100561.69;10392519;28;20057;-80
2022/06/08 17:49:07;;;;;;;13.02;6.82;;;;;;;16.05;88.19;100565.13;10409674;28;20485;-79
2022/06/08 17:54:09;;;;;;;12.70;6.82;;;;;;;16.08;87.89;100570.34;10408333;28;20038;-79
2022/06/08 17:59:10;;;;;;;11.38;6.95;;;;;;;16.10;88.29;100568.59;10407891;28;20049;-80
2022/06/08 18:04:12;;;;;;;12.43;6.93;;;;;;;16.14;88.73;100576.38;10392081;28;20104;-80
2022/06/08 18:09:14;;;;;;;14.70;7.15;;;;;;;15.82;88.30;100585.03;10411404;28;20044;-80
2022/06/08 18:14:16;;;;;;;12.18;7.80;;;;;;;15.97;88.12;100583.34;10407134;28;20041;-80
2022/06/08 18:19:18;;;;;;;13.60;8.02;;;;;;;16.03;88.49;100585.94;10401717;28;20053;-80
2022/06/08 18:24:21;;;;;;;14.40;7.68;;;;;;;15.89;88.89;100590.28;10402691;28;20037;-79
2022/06/08 18:29:27;;;;;;;15.32;9.25;;;;;;;15.80;88.83;100597.19;10401665;28;20056;-80
2022/06/08 18:34:29;;;;;;;18.27;10.10;;;;;;;15.82;89.31;100598.03;10400777;28;20072;-80
2022/06/08 18:39:31;;;;;;;14.82;9.27;;;;;;;15.74;89.27;100607.59;10399715;28;20052;-81
2022/06/08 18:44:33;;;;;;;16.00;9.10;;;;;;;15.85;89.54;100610.22;10400928;28;20038;-80
2022/06/08 18:49:35;;;;;;;16.77;9.65;;;;;;;15.84;89.79;100614.53;10396708;28;20041;-80
2022/06/08 18:54:38;;;;;;;18.95;9.23;;;;;;;15.87;89.28;100616.25;10400650;28;20068;-80
2022/06/08 18:59:39;;;;;;;24.40;10.75;;;;;;;15.80;89.67;100617.09;10414481;28;20037;-81
2022/06/08 19:04:41;;;;;;;20.67;11.00;;;;;;;15.77;89.92;100620.56;10398511;28;20049;-80
2022/06/08 19:09:43;;;;;;;18.60;10.98;;;;;;;15.76;89.88;100618.81;10403081;28;20041;-80
2022/06/08 19:14:45;;;;;;;21.45;11.95;;;;;;;15.84;89.42;100627.50;10400283;28;20033;-80
2022/06/08 19:25:08;;;;;;;21.55;12.48;;;;;;;15.80;90.34;100632.66;10405689;28;20634;-80
2022/06/08 19:30:11;;;;;;;21.15;12.45;;;;;;;15.49;90.23;100643.03;10409633;28;20057;-81
2022/06/08 19:35:13;;;;;;;21.20;13.07;;;;;;;15.52;90.02;100643.94;10401666;28;20046;-80
2022/06/08 19:40:16;;;;;;;25.08;14.18;;;;;;;15.61;90.43;100650.84;10399057;28;20065;-80
2022/06/08 19:45:18;;;;;;;25.65;13.52;;;;;;;15.49;90.43;100654.28;10405075;28;20033;-79
2022/06/08 19:50:20;;;;;;;26.80;16.20;;;;;;;15.53;90.37;100655.16;10407151;28;20048;-80
2022/06/08 19:55:23;;;;;;;31.65;14.75;;;;;;;15.55;90.86;100669.88;10401799;28;20045;-80
2022/06/08 20:00:25;;;;;;;29.48;14.48;;;;;;;15.60;90.57;100671.63;10404969;28;20419;-80
2022/06/08 20:05:27;;;;;;;24.90;14.43;;;;;;;15.46;91.30;100677.66;10411377;28;20111;-79
2022/06/08 20:10:29;;;;;;;32.08;15.95;;;;;;;15.51;91.28;100683.75;10413502;28;20099;-79
2022/06/08 20:15:32;;;;;;;29.30;16.08;;;;;;;15.34;91.71;100690.59;10413120;28;20041;-80
2022/06/08 20:20:36;;;;;;;30.60;14.35;;;;;;;15.35;91.66;100697.53;10412117;28;20052;-80
2022/06/08 20:25:39;;;;;;;28.85;15.40;;;;;;;15.36;91.91;100688.88;10410527;28;20440;-80
2022/06/08 20:30:41;;;;;;;29.67;14.85;;;;;;;15.43;91.21;100698.44;10412915;28;20890;-79
2022/06/08 20:35:44;;;;;;;29.98;15.55;;;;;;;15.37;91.64;100698.41;10405518;28;20459;-79
2022/06/08 20:40:47;;;;;;;32.17;15.38;;;;;;;15.30;91.58;100704.44;10408380;28;20115;-79
2022/06/08 20:45:49;;;;;;;37.45;16.58;;;;;;;15.51;91.71;100699.31;10409974;28;20515;-79
2022/06/08 20:50:57;;;;;;;30.33;16.63;;;;;;;15.43;91.78;100701.03;10411865;28;20045;-80
2022/06/08 20:55:59;;;;;;;37.85;17.27;;;;;;;15.29;91.57;100700.13;10409218;28;20048;-80
2022/06/08 21:01:02;;;;;;;32.33;15.25;;;;;;;15.32;91.45;100703.59;10394714;28;20573;-80
2022/06/08 21:06:08;;;;;;;33.22;14.30;;;;;;;15.26;92.13;100702.69;10411982;28;20132;-79
2022/06/08 21:11:15;;;;;;;35.05;14.60;;;;;;;15.20;92.37;100714.78;10411068;28;20447;-79
2022/06/08 21:16:17;;;;;;;27.63;13.23;;;;;;;15.16;92.12;100713.03;10411283;28;20508;-80
2022/06/08 21:21:20;;;;;;;31.00;13.93;;;;;;;15.20;92.08;100703.53;10393926;28;20068;-80
2022/06/08 21:26:21;;;;;;;28.20;11.52;;;;;;;15.19;92.35;100701.81;10411162;28;20054;-79
2022/06/08 21:31:24;;;;;;;23.85;10.50;;;;;;;15.13;92.21;100707.84;10409587;28;20049;-80
2022/06/08 21:36:28;;;;;;;23.77;10.20;;;;;;;15.10;92.50;100710.41;10410631;28;20378;-79
2022/06/08 21:41:30;;;;;;;29.63;10.18;;;;;;;15.08;91.93;100712.13;10410039;28;20056;-79
2022/06/08 21:46:31;;;;;;;31.35;12.07;;;;;;;15.11;91.54;100703.50;10398853;28;20037;-80
2022/06/08 21:51:33;;;;;;;26.80;11.65;;;;;;;15.19;90.96;100709.59;10408854;28;20406;-79
2022/06/08 21:56:35;;;;;;;25.80;10.82;;;;;;;15.08;90.17;100704.34;10409057;28;20037;-79
2022/06/08 22:01:38;;;;;;;26.58;10.88;;;;;;;15.04;90.21;100702.63;10408049;28;20080;-79
2022/06/08 22:06:39;;;;;;;24.63;11.45;;;;;;;15.07;90.13;100698.31;10424496;28;20080;-79
2022/06/08 22:11:42;;;;;;;23.50;10.75;;;;;;;15.16;90.21;100687.06;10415248;28;20481;-80
2022/06/08 22:16:44;;;;;;;19.77;10.85;;;;;;;15.21;89.62;100693.19;10399647;28;20053;-80
2022/06/08 22:21:46;;;;;;;17.48;10.15;;;;;;;15.31;88.48;100695.78;10409387;28;20045;-80
2022/06/08 22:26:47;;;;;;;24.63;10.30;;;;;;;15.22;88.08;100697.50;10406525;28;20041;-79
2022/06/08 22:31:49;;;;;;;21.20;9.52;;;;;;;15.15;88.42;100697.47;10404353;28;20084;-80
2022/06/08 22:36:52;;;;;;;24.42;9.43;;;;;;;15.23;87.97;100694.03;10407151;28;20491;-79
2022/06/08 22:41:54;;;;;;;21.90;9.65;;;;;;;15.31;87.44;100696.66;10411615;28;20559;-79
2022/06/08 22:46:56;;;;;;;27.67;9.48;;;;;;;15.25;88.14;100700.94;10411621;28;20128;-79
2022/06/08 22:51:59;;;;;;;23.33;10.13;;;;;;;15.12;88.28;100716.47;10411946;28;20041;-79
2022/06/08 22:57:00;;;;;;;19.42;9.82;;;;;;;14.91;89.27;100717.25;10410701;28;20048;-80
2022/06/08 23:02:02;;;;;;;21.40;9.05;;;;;;;14.97;89.46;100716.41;10410192;28;20045;-80
2022/06/08 23:07:08;;;;;;;24.42;9.52;;;;;;;15.01;89.44;100728.53;10412933;28;20084;-79
2022/06/08 23:12:10;;;;;;;22.75;10.10;;;;;;;14.98;88.43;100718.16;10412008;28;20041;-79
2022/06/08 23:22:40;;;;;;;17.85;9.70;;;;;;;14.88;89.75;100731.06;10409456;28;20041;-80
2022/06/08 23:27:43;;;;;;;18.33;9.63;;;;;;;14.88;89.21;100723.28;10411716;28;20049;-79
2022/06/08 23:32:45;;;;;;;28.02;9.38;;;;;;;14.84;88.93;100731.94;10396359;28;20107;-80
2022/06/08 23:37:47;;;;;;;22.50;10.20;;;;;;;14.82;88.97;100732.78;10414706;28;20396;-79
2022/06/08 23:42:49;;;;;;;22.98;9.32;;;;;;;14.82;89.75;100733.63;10422492;28;20107;-75
2022/06/08 23:48:07;;;;;;;20.50;9.23;;;;;;;14.86;88.33;100729.34;10422489;28;20483;-76
2022/06/08 23:53:09;;;;;;;24.20;9.27;;;;;;;14.92;88.06;100734.53;10413829;28;20045;-76
2022/06/08 23:58:11;;;;;;;19.42;9.35;;;;;;;14.90;88.83;100731.06;10419037;28;20497;-76
